ADDS METAR Data

Data at: 0502 UTC 20 Apr 2018

METAR for:KIJD (Willimantic/Windhan, CT, US)
Text:KIJD 200452Z AUTO 29009KT 10SM CLR 03/M02 A2991 RMK AO2 SLP131 T00331022 400670011
Temperature: 3.3°C ( 38°F)
Dewpoint: -2.2°C ( 28°F) [RH = 67%]
Pressure (altimeter):29.91 inches Hg (1013.0 mb) [Sea level pressure: 1013.1 mb]
Winds:from the WNW (290 degrees) at 10 MPH (9 knots; 4.6 m/s)
Visibility:10 or more sm (16+ km)
Ceiling:at least 12,000 feet AGL
Clouds:sky clear below 12,000 feet AGL
QC Flag:automated observation with no human augmentation